Time;durP1;ratioP1;P1;durP2;ratioP2;P2;SDS_P1;SDS_P2;PMS_P1;PMS_P2;Temp;Humidity;BMP_temperature;BMP_pressure;BME280_temperature;BME280_humidity;BME280_pressure;Samples;Min_cycle;Max_cycle;Signal;HPM_P1;HPM_P2
2022/09/03 00:01:39;;;;;;;0.20;0.10;;;;;;;;;;5110478;28;20424;-74
2022/09/03 00:04:19;;;;;;;0.00;0.00;;;;;;;;;;5110153;28;20549;-74
2022/09/03 00:06:49;;;;;;;1.40;0.10;;;;;;;;;;5106454;28;20409;-74
2022/09/03 00:09:27;;;;;;;0.13;0.13;;;;;;;;;;5093540;28;20107;-74
2022/09/03 00:12:08;;;;;;;0.27;0.27;;;;;;;;;;5111214;28;20454;-73
2022/09/03 00:14:40;;;;;;;0.00;0.00;;;;;;;;;;5115234;28;20050;-73
2022/09/03 00:17:13;;;;;;;0.60;0.40;;;;;;;;;;5107646;28;20016;-74
2022/09/03 00:19:43;;;;;;;0.17;0.17;;;;;;;;;;5094724;28;20033;-74
2022/09/03 00:22:15;;;;;;;0.10;0.10;;;;;;;;;;5089421;28;20020;-74
2022/09/03 00:24:42;;;;;;;0.30;0.27;;;;;;;;;;5089440;28;20459;-74
2022/09/03 00:27:14;;;;;;;0.67;0.30;;;;;;;;;;5095340;28;20024;-74
2022/09/03 00:29:51;;;;;;;1.07;0.60;;;;;;;;;;5109670;28;20036;-74
2022/09/03 00:32:40;;;;;;;0.20;0.20;;;;;;;;;;5114829;28;20080;-74
2022/09/03 00:35:10;;;;;;;0.40;0.30;;;;;;;;;;5104171;28;20040;-74
2022/09/03 00:37:37;;;;;;;0.33;0.27;;;;;;;;;;5104411;28;20017;-73
2022/09/03 00:40:06;;;;;;;0.50;0.30;;;;;;;;;;5093648;28;20035;-73
2022/09/03 00:42:39;;;;;;;0.67;0.30;;;;;;;;;;5092841;28;20475;-74
2022/09/03 00:45:27;;;;;;;0.10;0.10;;;;;;;;;;5089067;28;20094;-73
2022/09/03 00:47:56;;;;;;;0.13;0.13;;;;;;;;;;5100796;28;20027;-74
2022/09/03 00:50:29;;;;;;;0.37;0.23;;;;;;;;;;5108938;28;20057;-74
2022/09/03 00:52:56;;;;;;;0.20;0.20;;;;;;;;;;5110868;28;20050;-74
2022/09/03 00:55:35;;;;;;;0.30;0.30;;;;;;;;;;5107593;28;20047;-74
2022/09/03 00:58:12;;;;;;;0.60;0.33;;;;;;;;;;5093993;28;20024;-73
2022/09/03 01:00:42;;;;;;;1.43;0.37;;;;;;;;;;5093703;28;20099;-74
2022/09/03 01:03:24;;;;;;;0.10;0.10;;;;;;;;;;5094791;28;20027;-73
2022/09/03 01:05:54;;;;;;;0.50;0.20;;;;;;;;;;5090268;28;20036;-74
2022/09/03 01:08:31;;;;;;;0.20;0.17;;;;;;;;;;5088685;28;20375;-74
2022/09/03 01:10:57;;;;;;;0.70;0.40;;;;;;;;;;5088034;28;20107;-74
2022/09/03 01:13:33;;;;;;;1.40;0.30;;;;;;;;;;5102973;28;20048;-74
2022/09/03 01:16:21;;;;;;;0.20;0.17;;;;;;;;;;5110992;28;20024;-74
2022/09/03 01:19:07;;;;;;;0.10;0.07;;;;;;;;;;5113917;28;20106;-74
2022/09/03 01:21:45;;;;;;;0.53;0.20;;;;;;;;;;5113939;28;20073;-73
2022/09/03 01:24:27;;;;;;;0.20;0.13;;;;;;;;;;5093538;28;20442;-74
2022/09/03 01:27:00;;;;;;;0.10;0.10;;;;;;;;;;5092095;28;20432;-73
2022/09/03 01:29:34;;;;;;;0.47;0.40;;;;;;;;;;5088027;28;20165;-72
2022/09/03 01:32:20;;;;;;;0.10;0.10;;;;;;;;;;5090313;28;20027;-73
2022/09/03 01:34:56;;;;;;;0.10;0.10;;;;;;;;;;5108329;28;20051;-73
2022/09/03 01:37:22;;;;;;;0.60;0.30;;;;;;;;;;5109795;28;20085;-73
2022/09/03 01:40:01;;;;;;;0.20;0.20;;;;;;;;;;5113663;28;20019;-73
2022/09/03 01:42:27;;;;;;;0.30;0.30;;;;;;;;;;5106361;28;20470;-74
2022/09/03 01:45:11;;;;;;;0.20;0.20;;;;;;;;;;5093154;28;20027;-73
2022/09/03 01:47:48;;;;;;;0.10;0.10;;;;;;;;;;5092961;28;20111;-73
2022/09/03 01:50:16;;;;;;;0.50;0.33;;;;;;;;;;5089995;28;20048;-73
2022/09/03 01:52:53;;;;;;;2.03;0.50;;;;;;;;;;5095188;28;20036;-73
2022/09/03 01:55:26;;;;;;;0.40;0.30;;;;;;;;;;5107994;28;20027;-72
2022/09/03 01:57:55;;;;;;;0.50;0.40;;;;;;;;;;5108022;28;20019;-72
2022/09/03 02:00:23;;;;;;;0.20;0.20;;;;;;;;;;5110648;28;20132;-73
2022/09/03 02:02:51;;;;;;;0.60;0.40;;;;;;;;;;5104153;28;20048;-73
2022/09/03 02:05:22;;;;;;;0.63;0.37;;;;;;;;;;5092821;28;20055;-73
2022/09/03 02:07:59;;;;;;;0.63;0.33;;;;;;;;;;5092765;28;20098;-73
2022/09/03 02:10:29;;;;;;;1.03;0.57;;;;;;;;;;5092671;28;20028;-73
2022/09/03 02:12:58;;;;;;;0.37;0.30;;;;;;;;;;5097877;28;20044;-73
2022/09/03 02:15:25;;;;;;;0.47;0.27;;;;;;;;;;5107762;28;20111;-73
2022/09/03 02:17:55;;;;;;;1.10;0.70;;;;;;;;;;5107560;28;20032;-73
2022/09/03 02:20:23;;;;;;;1.33;0.53;;;;;;;;;;5107801;28;20020;-72
2022/09/03 02:22:50;;;;;;;2.83;0.60;;;;;;;;;;5102148;28;20030;-73
2022/09/03 02:25:17;;;;;;;1.23;0.77;;;;;;;;;;5092332;28;20024;-72
2022/09/03 02:27:44;;;;;;;2.27;0.90;;;;;;;;;;5092597;28;20025;-72
2022/09/03 02:30:11;;;;;;;0.77;0.50;;;;;;;;;;5092714;28;20016;-72
2022/09/03 02:32:37;;;;;;;1.23;0.60;;;;;;;;;;5098400;28;20020;-72
2022/09/03 02:35:04;;;;;;;0.70;0.40;;;;;;;;;;5109148;28;20061;-72
2022/09/03 02:37:31;;;;;;;0.33;0.30;;;;;;;;;;5108128;28;20024;-73
2022/09/03 02:39:58;;;;;;;3.90;0.60;;;;;;;;;;5107674;28;20024;-73
2022/09/03 02:42:24;;;;;;;0.83;0.53;;;;;;;;;;5103487;28;20032;-72
2022/09/03 02:44:53;;;;;;;0.73;0.20;;;;;;;;;;5089979;28;20032;-73
2022/09/03 02:47:20;;;;;;;0.83;0.50;;;;;;;;;;5092306;28;20021;-72
2022/09/03 02:49:48;;;;;;;1.50;0.77;;;;;;;;;;5092534;28;20032;-72
2022/09/03 02:52:15;;;;;;;0.63;0.47;;;;;;;;;;5094159;28;20069;-73
2022/09/03 02:54:43;;;;;;;0.20;0.20;;;;;;;;;;5113758;28;20043;-73
2022/09/03 02:57:12;;;;;;;4.53;0.70;;;;;;;;;;5113533;28;20079;-73
2022/09/03 02:59:38;;;;;;;0.30;0.30;;;;;;;;;;5111643;28;20023;-73
2022/09/03 03:02:05;;;;;;;0.20;0.20;;;;;;;;;;5110520;28;20592;-72
2022/09/03 03:04:33;;;;;;;0.30;0.20;;;;;;;;;;5091264;28;20024;-72
2022/09/03 03:06:59;;;;;;;0.83;0.60;;;;;;;;;;5093601;28;20020;-72
2022/09/03 03:09:26;;;;;;;0.53;0.23;;;;;;;;;;5096003;28;20024;-72
2022/09/03 03:11:54;;;;;;;0.30;0.23;;;;;;;;;;5096049;28;20398;-73
2022/09/03 03:14:21;;;;;;;0.20;0.20;;;;;;;;;;5115090;28;20115;-72
2022/09/03 03:16:48;;;;;;;0.60;0.47;;;;;;;;;;5116532;28;20020;-73
2022/09/03 03:19:15;;;;;;;1.10;0.40;;;;;;;;;;5113874;28;20093;-73
2022/09/03 03:21:42;;;;;;;0.10;0.10;;;;;;;;;;5111450;28;20494;-72
2022/09/03 03:24:09;;;;;;;0.20;0.20;;;;;;;;;;5093402;28;20081;-73
2022/09/03 03:26:35;;;;;;;0.37;0.30;;;;;;;;;;5090553;28;20056;-73
2022/09/03 03:29:05;;;;;;;0.60;0.40;;;;;;;;;;5092654;28;20081;-73
2022/09/03 03:31:32;;;;;;;0.20;0.10;;;;;;;;;;5095522;28;20027;-72
2022/09/03 03:34:00;;;;;;;0.20;0.20;;;;;;;;;;5111260;28;20039;-72
2022/09/03 03:36:28;;;;;;;1.43;0.73;;;;;;;;;;5116170;28;20096;-72
2022/09/03 03:38:56;;;;;;;0.93;0.50;;;;;;;;;;5116141;28;20076;-73
2022/09/03 03:41:24;;;;;;;0.20;0.20;;;;;;;;;;5113653;28;20027;-73
2022/09/03 03:43:58;;;;;;;0.60;0.40;;;;;;;;;;5095765;28;20039;-73
2022/09/03 03:46:25;;;;;;;0.30;0.30;;;;;;;;;;5090364;28;20028;-73
2022/09/03 03:48:52;;;;;;;0.93;0.60;;;;;;;;;;5090356;28;20383;-75
2022/09/03 03:51:19;;;;;;;0.33;0.20;;;;;;;;;;5092044;28;20031;-74
2022/09/03 03:53:46;;;;;;;0.63;0.37;;;;;;;;;;5108732;28;20035;-73
2022/09/03 03:56:15;;;;;;;0.73;0.70;;;;;;;;;;5115828;28;20038;-72
2022/09/03 03:58:43;;;;;;;1.73;0.80;;;;;;;;;;5115800;28;20552;-72
2022/09/03 04:01:14;;;;;;;0.57;0.50;;;;;;;;;;5105717;28;20036;-72
2022/09/03 04:03:41;;;;;;;0.50;0.33;;;;;;;;;;5092746;28;20557;-73
2022/09/03 04:06:09;;;;;;;0.73;0.30;;;;;;;;;;5089688;28;20512;-72
2022/09/03 04:08:36;;;;;;;0.30;0.30;;;;;;;;;;5090010;28;20024;-73
2022/09/03 04:11:04;;;;;;;0.97;0.37;;;;;;;;;;5097557;28;20125;-72
2022/09/03 04:13:32;;;;;;;0.43;0.33;;;;;;;;;;5111827;28;20119;-72
2022/09/03 04:16:05;;;;;;;1.00;0.57;;;;;;;;;;5114797;28;20521;-74
2022/09/03 04:18:32;;;;;;;1.17;0.27;;;;;;;;;;5115631;28;20024;-74
2022/09/03 04:21:03;;;;;;;0.47;0.40;;;;;;;;;;5107640;28;20028;-72
2022/09/03 04:23:33;;;;;;;0.17;0.13;;;;;;;;;;5094807;28;20016;-72
2022/09/03 04:26:00;;;;;;;0.57;0.33;;;;;;;;;;5092441;28;20032;-72
2022/09/03 04:28:27;;;;;;;0.23;0.20;;;;;;;;;;5089564;28;20032;-72
2022/09/03 04:30:53;;;;;;;0.77;0.63;;;;;;;;;;5094986;28;20026;-72
2022/09/03 04:33:20;;;;;;;0.73;0.57;;;;;;;;;;5109782;28;20024;-74
2022/09/03 04:35:48;;;;;;;12.30;0.77;;;;;;;;;;5111494;28;20020;-74
2022/09/03 04:38:16;;;;;;;1.07;0.53;;;;;;;;;;5114957;28;20102;-73
2022/09/03 04:40:42;;;;;;;0.20;0.20;;;;;;;;;;5110297;28;20031;-74
2022/09/03 04:43:09;;;;;;;0.20;0.20;;;;;;;;;;5094423;28;20024;-74
2022/09/03 04:45:36;;;;;;;0.47;0.33;;;;;;;;;;5094352;28;20020;-74
2022/09/03 04:48:03;;;;;;;0.33;0.20;;;;;;;;;;5092105;28;20031;-74
2022/09/03 04:50:31;;;;;;;0.00;0.00;;;;;;;;;;5090983;28;20520;-74
2022/09/03 04:53:02;;;;;;;0.17;0.17;;;;;;;;;;5109379;28;20020;-74
2022/09/03 04:55:32;;;;;;;0.70;0.30;;;;;;;;;;5109574;28;20020;-74
2022/09/03 04:57:59;;;;;;;0.40;0.30;;;;;;;;;;5110782;28;20465;-74
2022/09/03 05:00:26;;;;;;;0.20;0.20;;;;;;;;;;5112773;28;20031;-74
2022/09/03 05:02:53;;;;;;;0.27;0.17;;;;;;;;;;5093774;28;20031;-74
2022/09/03 05:05:19;;;;;;;1.00;0.30;;;;;;;;;;5094009;28;20024;-73
2022/09/03 05:07:46;;;;;;;0.40;0.30;;;;;;;;;;5093930;28;20500;-72
2022/09/03 05:10:19;;;;;;;0.20;0.20;;;;;;;;;;5092035;28;20024;-74
2022/09/03 05:12:57;;;;;;;1.50;0.40;;;;;;;;;;5088602;28;20475;-73
2022/09/03 05:15:24;;;;;;;0.63;0.37;;;;;;;;;;5094857;28;20413;-73
2022/09/03 05:17:55;;;;;;;0.47;0.43;;;;;;;;;;5108215;28;20111;-74
2022/09/03 05:20:22;;;;;;;1.17;0.27;;;;;;;;;;5110442;28;20024;-73
2022/09/03 05:22:49;;;;;;;1.63;0.40;;;;;;;;;;5114109;28;20036;-73
2022/09/03 05:25:15;;;;;;;0.53;0.37;;;;;;;;;;5108981;28;20111;-74
2022/09/03 05:27:42;;;;;;;0.20;0.20;;;;;;;;;;5093660;28;20012;-73
2022/09/03 05:30:09;;;;;;;0.50;0.40;;;;;;;;;;5093375;28;20020;-74
2022/09/03 05:32:36;;;;;;;0.60;0.50;;;;;;;;;;5091213;28;20032;-74
2022/09/03 05:35:02;;;;;;;0.33;0.30;;;;;;;;;;5090302;28;20016;-73
2022/09/03 05:37:29;;;;;;;0.40;0.40;;;;;;;;;;5108612;28;20020;-73
2022/09/03 05:39:56;;;;;;;1.67;0.97;;;;;;;;;;5108816;28;20027;-73
2022/09/03 05:42:22;;;;;;;13.23;0.87;;;;;;;;;;5109349;28;20111;-73
2022/09/03 05:44:50;;;;;;;2.30;1.13;;;;;;;;;;5113321;28;20031;-74
2022/09/03 05:47:16;;;;;;;0.80;0.77;;;;;;;;;;5093208;28;20096;-73
2022/09/03 05:49:43;;;;;;;1.10;0.73;;;;;;;;;;5092899;28;20020;-73
2022/09/03 05:52:10;;;;;;;1.07;0.90;;;;;;;;;;5093191;28;20032;-73
2022/09/03 05:54:36;;;;;;;2.87;1.43;;;;;;;;;;5091756;28;20119;-73
2022/09/03 05:57:03;;;;;;;1.33;0.80;;;;;;;;;;5106491;28;20375;-73
2022/09/03 05:59:30;;;;;;;0.57;0.57;;;;;;;;;;5108255;28;20106;-73
2022/09/03 06:01:56;;;;;;;3.20;0.70;;;;;;;;;;5108328;28;20382;-73
2022/09/03 06:04:23;;;;;;;0.37;0.37;;;;;;;;;;5108553;28;20381;-73
2022/09/03 06:06:50;;;;;;;0.80;0.60;;;;;;;;;;5095859;28;20492;-73
2022/09/03 06:09:20;;;;;;;1.27;0.73;;;;;;;;;;5092793;28;20024;-73
2022/09/03 06:11:50;;;;;;;1.23;0.57;;;;;;;;;;5092835;28;20024;-74
2022/09/03 06:14:17;;;;;;;0.97;0.50;;;;;;;;;;5092684;28;20046;-73
2022/09/03 06:16:47;;;;;;;0.40;0.33;;;;;;;;;;5106548;28;20478;-73
2022/09/03 06:19:14;;;;;;;0.87;0.63;;;;;;;;;;5108017;28;20381;-73
2022/09/03 06:21:44;;;;;;;0.20;0.20;;;;;;;;;;5107690;28;20351;-72
2022/09/03 06:24:12;;;;;;;0.37;0.20;;;;;;;;;;5107912;28;20123;-72
2022/09/03 06:26:39;;;;;;;0.43;0.17;;;;;;;;;;5093480;28;20442;-72
2022/09/03 06:29:07;;;;;;;11.03;0.40;;;;;;;;;;5092419;28;20030;-73
2022/09/03 06:31:34;;;;;;;0.13;0.10;;;;;;;;;;5092483;28;20012;-72
2022/09/03 06:34:01;;;;;;;0.27;0.10;;;;;;;;;;5092347;28;20067;-73
2022/09/03 06:36:28;;;;;;;1.10;0.40;;;;;;;;;;5104497;28;20024;-73
2022/09/03 06:38:56;;;;;;;0.67;0.27;;;;;;;;;;5112288;28;20437;-73
2022/09/03 06:41:24;;;;;;;0.00;0.00;;;;;;;;;;5107898;28;20055;-73
2022/09/03 06:43:56;;;;;;;0.10;0.10;;;;;;;;;;5107623;28;20059;-72
2022/09/03 06:46:23;;;;;;;0.50;0.43;;;;;;;;;;5095612;28;20024;-73
2022/09/03 06:48:50;;;;;;;0.27;0.20;;;;;;;;;;5087493;28;20025;-73
2022/09/03 06:51:20;;;;;;;5.20;0.73;;;;;;;;;;5091679;28;20412;-73
2022/09/03 06:53:51;;;;;;;4.33;0.77;;;;;;;;;;5092389;28;20060;-73
2022/09/03 06:56:24;;;;;;;7.03;0.83;;;;;;;;;;5102985;28;20088;-73
2022/09/03 06:58:51;;;;;;;0.47;0.37;;;;;;;;;;5112666;28;20107;-73
2022/09/03 07:01:22;;;;;;;0.90;0.60;;;;;;;;;;5111082;28;20024;-73
2022/09/03 07:03:54;;;;;;;0.30;0.30;;;;;;;;;;5107017;28;20031;-72
2022/09/03 07:06:21;;;;;;;0.37;0.20;;;;;;;;;;5095992;28;20566;-72
2022/09/03 07:08:48;;;;;;;0.30;0.30;;;;;;;;;;5086816;28;20055;-73
2022/09/03 07:11:16;;;;;;;0.30;0.20;;;;;;;;;;5087892;28;20024;-73
2022/09/03 07:13:44;;;;;;;0.83;0.47;;;;;;;;;;5092055;28;20036;-72
2022/09/03 07:16:11;;;;;;;0.40;0.40;;;;;;;;;;5100985;28;20386;-72
2022/09/03 07:18:38;;;;;;;0.33;0.23;;;;;;;;;;5111653;28;20016;-72
2022/09/03 07:21:06;;;;;;;0.47;0.40;;;;;;;;;;5112441;28;20489;-73
2022/09/03 07:23:33;;;;;;;0.30;0.20;;;;;;;;;;5102073;28;20691;-72
2022/09/03 07:26:01;;;;;;;0.20;0.20;;;;;;;;;;5087022;28;20069;-73
2022/09/03 07:28:29;;;;;;;0.37;0.20;;;;;;;;;;5086873;28;20497;-72
2022/09/03 07:31:00;;;;;;;0.30;0.30;;;;;;;;;;5086829;28;20020;-72
2022/09/03 07:33:29;;;;;;;0.20;0.20;;;;;;;;;;5091761;28;20130;-72
2022/09/03 07:35:55;;;;;;;0.43;0.40;;;;;;;;;;5112411;28;20020;-72
2022/09/03 07:38:23;;;;;;;0.37;0.23;;;;;;;;;;5112282;28;20051;-72
2022/09/03 07:40:58;;;;;;;0.30;0.20;;;;;;;;;;5113532;28;20481;-72
2022/09/03 07:43:27;;;;;;;0.60;0.37;;;;;;;;;;5111724;28;20064;-73
2022/09/03 07:45:54;;;;;;;0.10;0.10;;;;;;;;;;5094314;28;20031;-72
2022/09/03 07:48:21;;;;;;;0.77;0.37;;;;;;;;;;5090323;28;20158;-74
2022/09/03 07:50:48;;;;;;;0.00;0.00;;;;;;;;;;5090454;28;20542;-72
2022/09/03 07:53:19;;;;;;;0.10;0.10;;;;;;;;;;5092277;28;20456;-74
2022/09/03 07:55:47;;;;;;;0.27;0.20;;;;;;;;;;5111282;28;20028;-73
2022/09/03 07:58:14;;;;;;;0.77;0.63;;;;;;;;;;5115705;28;20470;-73
2022/09/03 08:00:41;;;;;;;0.30;0.20;;;;;;;;;;5115347;28;20020;-73
2022/09/03 08:03:07;;;;;;;0.40;0.40;;;;;;;;;;5113897;28;20034;-73
2022/09/03 08:05:37;;;;;;;1.27;0.57;;;;;;;;;;5095145;28;20028;-73
2022/09/03 08:08:04;;;;;;;5.70;0.97;;;;;;;;;;5094226;28;20028;-73
2022/09/03 08:10:34;;;;;;;0.83;0.30;;;;;;;;;;5090028;28;20024;-73
2022/09/03 08:13:04;;;;;;;0.40;0.33;;;;;;;;;;5089794;28;20356;-73
2022/09/03 08:15:31;;;;;;;0.20;0.20;;;;;;;;;;5090022;28;20535;-73
2022/09/03 08:17:59;;;;;;;0.23;0.20;;;;;;;;;;5089720;28;20038;-73
2022/09/03 08:20:26;;;;;;;0.00;0.00;;;;;;;;;;5094887;28;20488;-74
2022/09/03 08:22:53;;;;;;;0.30;0.20;;;;;;;;;;5106243;28;20028;-74
2022/09/03 08:25:20;;;;;;;0.30;0.30;;;;;;;;;;5115190;28;20098;-72
2022/09/03 08:27:46;;;;;;;0.10;0.10;;;;;;;;;;5115440;28;20373;-72
2022/09/03 08:30:13;;;;;;;0.30;0.10;;;;;;;;;;5114338;28;20482;-75
2022/09/03 08:32:40;;;;;;;0.50;0.40;;;;;;;;;;5099881;28;20039;-74
2022/09/03 08:35:08;;;;;;;0.43;0.20;;;;;;;;;;5089457;28;20020;-74
2022/09/03 08:37:35;;;;;;;0.40;0.33;;;;;;;;;;5089442;28;20151;-73
2022/09/03 08:40:03;;;;;;;0.10;0.10;;;;;;;;;;5089415;28;20031;-73
2022/09/03 08:42:43;;;;;;;0.00;0.00;;;;;;;;;;5100807;28;20381;-73
2022/09/03 08:45:15;;;;;;;0.10;0.10;;;;;;;;;;5094304;28;20028;-73
2022/09/03 08:47:47;;;;;;;0.20;0.20;;;;;;;;;;5094539;28;20020;-73
2022/09/03 08:50:23;;;;;;;0.40;0.23;;;;;;;;;;5094318;28;20020;-73
2022/09/03 08:52:52;;;;;;;0.50;0.10;;;;;;;;;;5095501;28;20027;-73
2022/09/03 08:55:22;;;;;;;0.10;0.10;;;;;;;;;;5109568;28;20022;-73
2022/09/03 08:57:54;;;;;;;1.10;0.33;;;;;;;;;;5109218;28;20024;-73
2022/09/03 09:00:21;;;;;;;0.30;0.20;;;;;;;;;;5109570;28;20034;-73
2022/09/03 09:03:01;;;;;;;0.17;0.17;;;;;;;;;;5107611;28;20043;-73
2022/09/03 09:05:42;;;;;;;0.10;0.10;;;;;;;;;;5093925;28;20032;-73
2022/09/03 09:08:34;;;;;;;1.30;0.53;;;;;;;;;;5093568;28;20475;-73
2022/09/03 09:11:04;;;;;;;8.47;0.70;;;;;;;;;;5070521;28;20040;-73
2022/09/03 09:13:36;;;;;;;0.30;0.30;;;;;;;;;;5101698;28;20193;-73
2022/09/03 09:16:21;;;;;;;0.40;0.27;;;;;;;;;;5110428;28;20024;-73
2022/09/03 09:19:23;;;;;;;0.22;0.20;;;;;;;;;;5109059;28;20514;-73
2022/09/03 09:21:53;;;;;;;0.33;0.20;;;;;;;;;;5025822;28;20610;-73
2022/09/03 09:24:25;;;;;;;0.37;0.30;;;;;;;;;;5079010;27;20040;-73
2022/09/03 09:27:04;;;;;;;0.90;0.30;;;;;;;;;;5093235;28;20024;-73
2022/09/03 09:29:36;;;;;;;0.57;0.40;;;;;;;;;;5106452;28;20055;-73
2022/09/03 09:32:03;;;;;;;0.20;0.20;;;;;;;;;;5113629;28;20016;-73
2022/09/03 09:34:35;;;;;;;1.07;0.73;;;;;;;;;;5113820;28;20032;-73
2022/09/03 09:37:03;;;;;;;0.30;0.30;;;;;;;;;;5112928;28;20111;-73
2022/09/03 09:39:30;;;;;;;1.70;0.43;;;;;;;;;;5096326;28;20055;-73
2022/09/03 09:42:01;;;;;;;0.43;0.27;;;;;;;;;;5087104;28;21182;-73
2022/09/03 09:44:27;;;;;;;1.00;0.43;;;;;;;;;;5088230;28;20082;-73
2022/09/03 09:47:03;;;;;;;1.10;0.27;;;;;;;;;;5087894;28;20028;-73
2022/09/03 09:49:30;;;;;;;1.30;0.43;;;;;;;;;;5106477;28;20027;-73
2022/09/03 09:52:05;;;;;;;0.00;0.00;;;;;;;;;;5113633;28;20390;-73
2022/09/03 09:54:32;;;;;;;0.00;0.00;;;;;;;;;;5113450;28;20031;-73
2022/09/03 09:57:00;;;;;;;0.13;0.13;;;;;;;;;;5113575;28;20086;-73
2022/09/03 09:59:27;;;;;;;0.30;0.10;;;;;;;;;;5098497;28;20336;-73
2022/09/03 10:02:03;;;;;;;0.20;0.20;;;;;;;;;;5087997;28;20031;-74
2022/09/03 10:04:31;;;;;;;0.40;0.40;;;;;;;;;;5087395;28;20120;-72
2022/09/03 10:07:18;;;;;;;0.83;0.60;;;;;;;;;;5087980;28;20370;-73
2022/09/03 10:09:45;;;;;;;0.50;0.47;;;;;;;;;;5103499;28;20032;-73
2022/09/03 10:12:23;;;;;;;0.23;0.20;;;;;;;;;;5113169;28;20027;-73
2022/09/03 10:14:56;;;;;;;0.53;0.43;;;;;;;;;;5113017;28;20038;-71
2022/09/03 10:17:28;;;;;;;0.20;0.20;;;;;;;;;;5112896;28;20355;-73
2022/09/03 10:22:49;;;;;;;0.27;0.27;;;;;;;;;;5089699;28;20440;-73
2022/09/03 10:25:17;;;;;;;0.77;0.27;;;;;;;;;;5087663;28;20024;-74
2022/09/03 10:27:44;;;;;;;0.43;0.27;;;;;;;;;;5087476;28;20024;-73
2022/09/03 10:30:15;;;;;;;0.10;0.10;;;;;;;;;;5105083;28;20034;-74
2022/09/03 10:32:48;;;;;;;0.30;0.30;;;;;;;;;;5110565;28;20035;-73
2022/09/03 10:35:32;;;;;;;0.10;0.10;;;;;;;;;;5092438;28;20032;-73
2022/09/03 10:38:08;;;;;;;0.10;0.10;;;;;;;;;;5092438;28;20099;-73
2022/09/03 10:40:37;;;;;;;0.20;0.13;;;;;;;;;;5092339;28;20501;-73
2022/09/03 10:43:30;;;;;;;0.57;0.30;;;;;;;;;;5092514;28;20066;-73
2022/09/03 10:46:10;;;;;;;1.10;0.37;;;;;;;;;;5087336;28;20031;-73
2022/09/03 10:48:48;;;;;;;0.67;0.30;;;;;;;;;;5091229;28;20023;-73
2022/09/03 10:51:32;;;;;;;1.33;0.60;;;;;;;;;;5107490;28;20046;-73
2022/09/03 10:53:59;;;;;;;0.77;0.47;;;;;;;;;;5108408;28;20088;-73
2022/09/03 10:56:49;;;;;;;0.70;0.50;;;;;;;;;;5112402;28;20019;-73
2022/09/03 10:59:16;;;;;;;1.13;0.70;;;;;;;;;;5102509;28;20028;-73
2022/09/03 11:01:45;;;;;;;1.70;0.83;;;;;;;;;;5092406;28;20031;-73
2022/09/03 11:04:31;;;;;;;1.73;1.30;;;;;;;;;;5092261;28;20051;-73
2022/09/03 11:07:04;;;;;;;3.20;2.33;;;;;;;;;;5089652;28;20044;-73
2022/09/03 11:09:49;;;;;;;8.00;4.50;;;;;;;;;;5098242;28;20367;-73
2022/09/03 11:12:36;;;;;;;5.30;3.25;;;;;;;;;;5107598;28;20031;-72
2022/09/03 11:15:10;;;;;;;4.73;2.53;;;;;;;;;;5107448;28;20051;-73
2022/09/03 11:17:40;;;;;;;1.00;0.73;;;;;;;;;;5114996;28;20051;-73
2022/09/03 11:20:06;;;;;;;0.33;0.30;;;;;;;;;;5100098;28;20020;-73
2022/09/03 11:22:33;;;;;;;0.57;0.50;;;;;;;;;;5096231;28;20035;-72
2022/09/03 11:25:02;;;;;;;0.93;0.60;;;;;;;;;;5095454;28;20024;-73
2022/09/03 11:27:36;;;;;;;0.60;0.33;;;;;;;;;;5101987;28;20019;-73
2022/09/03 11:30:07;;;;;;;0.33;0.30;;;;;;;;;;5111856;28;20389;-73
2022/09/03 11:32:53;;;;;;;0.30;0.30;;;;;;;;;;5111250;28;20020;-73
2022/09/03 11:35:32;;;;;;;0.10;0.10;;;;;;;;;;5111096;28;20114;-73
2022/09/03 11:38:04;;;;;;;0.00;0.00;;;;;;;;;;5101275;28;20055;-73
2022/09/03 11:40:38;;;;;;;0.57;0.37;;;;;;;;;;5095608;28;20402;-73
2022/09/03 11:43:26;;;;;;;0.27;0.27;;;;;;;;;;5095486;28;20024;-73
2022/09/03 11:46:04;;;;;;;0.27;0.17;;;;;;;;;;5095777;28;20023;-73
2022/09/03 11:48:36;;;;;;;0.20;0.20;;;;;;;;;;5108883;28;20394;-73
2022/09/03 11:51:03;;;;;;;0.33;0.23;;;;;;;;;;5114054;28;20431;-73
2022/09/03 11:53:36;;;;;;;0.50;0.43;;;;;;;;;;5110361;28;20115;-72
2022/09/03 11:56:05;;;;;;;0.47;0.23;;;;;;;;;;5110722;28;20107;-73
2022/09/03 11:58:33;;;;;;;0.40;0.40;;;;;;;;;;5096329;28;20103;-73
2022/09/03 12:01:04;;;;;;;0.43;0.40;;;;;;;;;;5091661;28;20103;-73
2022/09/03 12:03:40;;;;;;;0.43;0.43;;;;;;;;;;5095179;28;20477;-73
2022/09/03 12:06:25;;;;;;;1.13;0.80;;;;;;;;;;5095152;28;20035;-72
2022/09/03 12:08:55;;;;;;;0.40;0.40;;;;;;;;;;5111088;28;20458;-73
2022/09/03 12:11:40;;;;;;;1.27;0.93;;;;;;;;;;5115504;28;20370;-73
2022/09/03 12:14:06;;;;;;;0.98;0.65;;;;;;;;;;5112091;28;20482;-72
2022/09/03 12:16:57;;;;;;;0.73;0.50;;;;;;;;;;5110127;28;20027;-73
2022/09/03 12:19:32;;;;;;;0.30;0.30;;;;;;;;;;5089958;28;20036;-73
2022/09/03 12:22:03;;;;;;;0.93;0.35;;;;;;;;;;5089446;28;20095;-73
2022/09/03 12:24:34;;;;;;;1.17;0.47;;;;;;;;;;5093642;28;20036;-73
2022/09/03 12:27:01;;;;;;;0.63;0.60;;;;;;;;;;5094501;28;20115;-73
2022/09/03 12:29:30;;;;;;;0.53;0.53;;;;;;;;;;5094939;28;20032;-73
2022/09/03 12:32:05;;;;;;;1.30;0.93;;;;;;;;;;5094629;28;20031;-73
2022/09/03 12:34:32;;;;;;;6.00;1.50;;;;;;;;;;5094084;28;20039;-73
2022/09/03 12:36:59;;;;;;;0.30;0.27;;;;;;;;;;5089772;28;20020;-73
2022/09/03 12:39:27;;;;;;;0.90;0.70;;;;;;;;;;5109429;28;20027;-73
2022/09/03 12:42:00;;;;;;;0.20;0.20;;;;;;;;;;5109965;28;20549;-73
2022/09/03 12:44:47;;;;;;;0.50;0.40;;;;;;;;;;5109894;28;20026;-73
2022/09/03 12:47:18;;;;;;;0.33;0.27;;;;;;;;;;5113160;28;20080;-73
2022/09/03 12:49:45;;;;;;;0.30;0.30;;;;;;;;;;5094286;28;20107;-74
2022/09/03 12:52:20;;;;;;;0.40;0.40;;;;;;;;;;5094380;28;20502;-73
2022/09/03 12:54:54;;;;;;;0.75;0.75;;;;;;;;;;5094394;28;20023;-72
2022/09/03 12:57:22;;;;;;;2.70;0.77;;;;;;;;;;5094493;28;20360;-72
2022/09/03 12:59:50;;;;;;;0.53;0.50;;;;;;;;;;5109411;28;20039;-73
2022/09/03 13:02:24;;;;;;;0.83;0.63;;;;;;;;;;5109337;28;20131;-73
2022/09/03 13:04:51;;;;;;;0.63;0.60;;;;;;;;;;5109362;28;20020;-73
2022/09/03 13:07:32;;;;;;;0.40;0.40;;;;;;;;;;5107883;28;20076;-73
2022/09/03 13:10:03;;;;;;;1.33;0.67;;;;;;;;;;5092863;28;20379;-73
2022/09/03 13:12:32;;;;;;;0.30;0.30;;;;;;;;;;5094023;28;20046;-73
2022/09/03 13:15:05;;;;;;;4.13;1.20;;;;;;;;;;5093957;28;20032;-73
2022/09/03 13:17:34;;;;;;;1.07;0.87;;;;;;;;;;5096557;28;20024;-73
2022/09/03 13:20:10;;;;;;;1.17;0.77;;;;;;;;;;5111891;28;20107;-73
2022/09/03 13:22:55;;;;;;;1.00;0.80;;;;;;;;;;5109038;28;20054;-73
2022/09/03 13:25:21;;;;;;;1.25;1.00;;;;;;;;;;5108819;28;20016;-73
2022/09/03 13:28:08;;;;;;;0.83;0.60;;;;;;;;;;5103760;28;20443;-73
2022/09/03 13:30:40;;;;;;;0.53;0.43;;;;;;;;;;5091368;28;20031;-73
2022/09/03 13:33:15;;;;;;;0.97;0.60;;;;;;;;;;5093404;28;20076;-73
2022/09/03 13:35:47;;;;;;;0.63;0.43;;;;;;;;;;5093614;28;20524;-73
2022/09/03 13:38:25;;;;;;;1.83;0.83;;;;;;;;;;5100224;28;20030;-73
2022/09/03 13:41:09;;;;;;;0.87;0.80;;;;;;;;;;5113511;28;20317;-72
2022/09/03 13:43:45;;;;;;;0.30;0.30;;;;;;;;;;5108837;28;20027;-74
2022/09/03 13:46:24;;;;;;;0.87;0.60;;;;;;;;;;5108220;28;20026;-74
2022/09/03 13:51:49;;;;;;;1.03;0.70;;;;;;;;;;5088692;28;20039;-74
2022/09/03 13:54:20;;;;;;;8.02;0.70;;;;;;;;;;5092609;28;20031;-72
2022/09/03 13:56:57;;;;;;;0.73;0.37;;;;;;;;;;5093220;28;20098;-72
2022/09/03 13:59:42;;;;;;;0.60;0.40;;;;;;;;;;5109725;28;20426;-72
2022/09/03 14:02:20;;;;;;;0.52;0.47;;;;;;;;;;5095746;28;20024;-73
2022/09/03 14:04:59;;;;;;;1.17;0.77;;;;;;;;;;5090498;28;20490;-72
2022/09/03 14:07:28;;;;;;;0.77;0.40;;;;;;;;;;5087820;28;20020;-74
2022/09/03 14:10:05;;;;;;;0.70;0.50;;;;;;;;;;5087567;28;20028;-74
2022/09/03 14:12:41;;;;;;;1.13;0.80;;;;;;;;;;5106943;28;20108;-74
2022/09/03 14:15:10;;;;;;;1.40;0.80;;;;;;;;;;5110381;28;20024;-72
2022/09/03 14:17:37;;;;;;;2.50;1.53;;;;;;;;;;5092575;28;20016;-74
2022/09/03 14:20:22;;;;;;;2.97;1.17;;;;;;;;;;5092657;28;20020;-74
2022/09/03 14:22:52;;;;;;;2.08;1.52;;;;;;;;;;5092838;28;20105;-73
2022/09/03 14:25:20;;;;;;;3.13;1.53;;;;;;;;;;5092847;28;20016;-74
2022/09/03 14:27:47;;;;;;;2.67;1.50;;;;;;;;;;5108817;28;20020;-74
2022/09/03 14:30:16;;;;;;;1.60;1.07;;;;;;;;;;5107891;28;20098;-73
2022/09/03 14:32:48;;;;;;;0.87;0.73;;;;;;;;;;5107739;28;20024;-74
2022/09/03 14:35:19;;;;;;;12.20;2.10;;;;;;;;;;5107157;28;20055;-74
2022/09/03 14:37:56;;;;;;;1.67;1.10;;;;;;;;;;5091148;28;20457;-73
2022/09/03 14:40:30;;;;;;;2.03;0.83;;;;;;;;;;5092607;28;20060;-73
2022/09/03 14:43:15;;;;;;;1.10;1.00;;;;;;;;;;5092553;28;20035;-73
2022/09/03 14:46:00;;;;;;;1.08;0.80;;;;;;;;;;5092652;28;20035;-74
2022/09/03 14:48:30;;;;;;;1.00;0.70;;;;;;;;;;5094612;28;20027;-74
2022/09/03 14:51:07;;;;;;;2.40;1.47;;;;;;;;;;5110873;28;20381;-73
2022/09/03 14:53:43;;;;;;;4.03;1.33;;;;;;;;;;5111744;28;20072;-74
2022/09/03 14:56:26;;;;;;;0.73;0.63;;;;;;;;;;5111836;28;20020;-74
2022/09/03 14:59:12;;;;;;;4.27;1.90;;;;;;;;;;5106310;28;20044;-74
2022/09/03 15:01:39;;;;;;;2.33;1.17;;;;;;;;;;5086156;28;20040;-73
2022/09/03 15:04:18;;;;;;;3.53;1.30;;;;;;;;;;5096398;28;20024;-74
2022/09/03 15:06:57;;;;;;;1.63;0.93;;;;;;;;;;5096239;28;20020;-74
2022/09/03 15:09:27;;;;;;;1.23;0.67;;;;;;;;;;5106191;28;20062;-73
2022/09/03 15:12:09;;;;;;;2.03;1.50;;;;;;;;;;5113662;28;20023;-73
2022/09/03 15:14:39;;;;;;;1.47;1.00;;;;;;;;;;5111559;28;20024;-73